Evanston, Wyoming
Current Conditions -  °F | °C
As of 2:53 PM on Saturday 25 Oct 2014 (Local Time) from KEVW Reporting Station
Clear Clear  
Wind Chill: 68°   Ceiling: Unl
Heat Index: 68°   Visibility: 10mi
Dew Point: 22°   Wind: 26mph
Humidity: 17%   Direction: 210°SSW
Pressure: 30.12"   Gusts: 36mph
Location:  41.27°N, 110.96°W
Report Text: KEVW 252053Z AUTO 21023G31KT 10SM CLR 20/M06 A3012 RMK AO2 PK WND 21035/2014 SLP118 T02001056 56020 TSNO
Loading
Personal Weather Stations






























Interactive Weather Map
Tropical Storm Tracking
New forecast layout! Learn more

10-Day Weather Forecast

Advertisements
Track Severe Weather on mobile